sensor_id;sensor_type;location;lat;lon;timestamp;temperature;humidity
63219;DHT22;49320;52.512;13.448;2023-11-19T00:00:08;8.80;73.30
63219;DHT22;49320;52.512;13.448;2023-11-19T00:02:40;8.80;73.40
63219;DHT22;49320;52.512;13.448;2023-11-19T00:05:09;8.80;73.40
63219;DHT22;49320;52.512;13.448;2023-11-19T00:07:39;8.80;73.30
63219;DHT22;49320;52.512;13.448;2023-11-19T00:10:14;8.80;72.90
63219;DHT22;49320;52.512;13.448;2023-11-19T00:12:47;8.80;73.50
63219;DHT22;49320;52.512;13.448;2023-11-19T00:15:16;8.80;73.50
63219;DHT22;49320;52.512;13.448;2023-11-19T00:17:46;8.80;73.60
63219;DHT22;49320;52.512;13.448;2023-11-19T00:20:19;8.80;73.70
63219;DHT22;49320;52.512;13.448;2023-11-19T00:22:48;8.80;74.30
63219;DHT22;49320;52.512;13.448;2023-11-19T00:25:19;8.80;73.60
63219;DHT22;49320;52.512;13.448;2023-11-19T00:27:48;8.80;73.20
63219;DHT22;49320;52.512;13.448;2023-11-19T00:30:15;8.70;73.70
63219;DHT22;49320;52.512;13.448;2023-11-19T00:32:43;8.70;73.70
63219;DHT22;49320;52.512;13.448;2023-11-19T00:35:10;8.80;73.90
63219;DHT22;49320;52.512;13.448;2023-11-19T00:37:37;8.70;73.80
63219;DHT22;49320;52.512;13.448;2023-11-19T00:40:04;8.70;73.70
63219;DHT22;49320;52.512;13.448;2023-11-19T00:42:32;8.80;74.00
63219;DHT22;49320;52.512;13.448;2023-11-19T00:45:00;8.70;73.80
63219;DHT22;49320;52.512;13.448;2023-11-19T00:47:28;8.80;73.80
63219;DHT22;49320;52.512;13.448;2023-11-19T00:49:55;8.80;73.70
63219;DHT22;49320;52.512;13.448;2023-11-19T00:52:22;8.80;73.70
63219;DHT22;49320;52.512;13.448;2023-11-19T00:54:49;8.80;73.70
63219;DHT22;49320;52.512;13.448;2023-11-19T00:57:16;8.80;73.90
63219;DHT22;49320;52.512;13.448;2023-11-19T00:59:43;8.70;73.60
63219;DHT22;49320;52.512;13.448;2023-11-19T01:02:10;8.80;73.70
63219;DHT22;49320;52.512;13.448;2023-11-19T01:04:37;8.80;73.50
63219;DHT22;49320;52.512;13.448;2023-11-19T01:07:05;8.80;73.60
63219;DHT22;49320;52.512;13.448;2023-11-19T01:09:41;8.80;73.60
63219;DHT22;49320;52.512;13.448;2023-11-19T01:12:09;8.80;73.60
63219;DHT22;49320;52.512;13.448;2023-11-19T01:14:37;8.80;73.60
63219;DHT22;49320;52.512;13.448;2023-11-19T01:17:04;8.80;73.60
63219;DHT22;49320;52.512;13.448;2023-11-19T01:19:32;8.80;72.80
63219;DHT22;49320;52.512;13.448;2023-11-19T01:21:59;8.70;73.30
63219;DHT22;49320;52.512;13.448;2023-11-19T01:24:26;8.80;73.40
63219;DHT22;49320;52.512;13.448;2023-11-19T01:26:55;8.80;73.30
63219;DHT22;49320;52.512;13.448;2023-11-19T01:29:22;8.70;73.20
63219;DHT22;49320;52.512;13.448;2023-11-19T01:31:49;8.60;73.20
63219;DHT22;49320;52.512;13.448;2023-11-19T01:34:17;8.80;73.30
63219;DHT22;49320;52.512;13.448;2023-11-19T01:36:46;8.80;73.40
63219;DHT22;49320;52.512;13.448;2023-11-19T01:39:13;8.80;74.20
63219;DHT22;49320;52.512;13.448;2023-11-19T01:41:42;8.80;73.50
63219;DHT22;49320;52.512;13.448;2023-11-19T01:44:09;8.80;73.10
63219;DHT22;49320;52.512;13.448;2023-11-19T01:46:40;8.80;73.20
63219;DHT22;49320;52.512;13.448;2023-11-19T01:49:10;8.80;73.10
63219;DHT22;49320;52.512;13.448;2023-11-19T01:51:39;8.80;73.10
63219;DHT22;49320;52.512;13.448;2023-11-19T01:54:07;8.80;73.00
63219;DHT22;49320;52.512;13.448;2023-11-19T01:56:35;8.80;72.90
63219;DHT22;49320;52.512;13.448;2023-11-19T01:59:07;8.90;73.00
63219;DHT22;49320;52.512;13.448;2023-11-19T02:01:37;8.70;72.80
63219;DHT22;49320;52.512;13.448;2023-11-19T02:04:08;8.80;72.90
63219;DHT22;49320;52.512;13.448;2023-11-19T02:06:38;8.80;73.00
63219;DHT22;49320;52.512;13.448;2023-11-19T02:09:07;8.80;73.30
63219;DHT22;49320;52.512;13.448;2023-11-19T02:11:35;8.80;73.40
63219;DHT22;49320;52.512;13.448;2023-11-19T02:14:02;7.80;72.70
63219;DHT22;49320;52.512;13.448;2023-11-19T02:16:30;8.90;73.60
63219;DHT22;49320;52.512;13.448;2023-11-19T02:18:57;8.80;73.50
63219;DHT22;49320;52.512;13.448;2023-11-19T02:21:24;8.90;73.60
63219;DHT22;49320;52.512;13.448;2023-11-19T02:23:52;8.90;73.60
63219;DHT22;49320;52.512;13.448;2023-11-19T02:26:39;8.80;73.50
63219;DHT22;49320;52.512;13.448;2023-11-19T02:29:12;8.90;73.70
63219;DHT22;49320;52.512;13.448;2023-11-19T02:31:39;8.80;73.60
63219;DHT22;49320;52.512;13.448;2023-11-19T02:34:06;8.90;73.80
63219;DHT22;49320;52.512;13.448;2023-11-19T02:36:34;8.90;73.80
63219;DHT22;49320;52.512;13.448;2023-11-19T02:39:00;8.90;73.80
63219;DHT22;49320;52.512;13.448;2023-11-19T02:41:28;8.70;73.70
63219;DHT22;49320;52.512;13.448;2023-11-19T02:43:55;8.90;73.90
63219;DHT22;49320;52.512;13.448;2023-11-19T02:46:22;8.00;73.30
63219;DHT22;49320;52.512;13.448;2023-11-19T02:48:49;8.80;73.90
63219;DHT22;49320;52.512;13.448;2023-11-19T02:51:16;9.00;74.00
63219;DHT22;49320;52.512;13.448;2023-11-19T02:53:45;8.80;74.00
63219;DHT22;49320;52.512;13.448;2023-11-19T02:56:14;8.80;74.00
63219;DHT22;49320;52.512;13.448;2023-11-19T02:58:46;8.80;74.10
63219;DHT22;49320;52.512;13.448;2023-11-19T03:01:22;8.90;74.20
63219;DHT22;49320;52.512;13.448;2023-11-19T03:03:57;8.90;74.10
63219;DHT22;49320;52.512;13.448;2023-11-19T03:06:25;8.90;74.00
63219;DHT22;49320;52.512;13.448;2023-11-19T03:08:52;8.90;80.30
63219;DHT22;49320;52.512;13.448;2023-11-19T03:11:19;8.90;80.20
63219;DHT22;49320;52.512;13.448;2023-11-19T03:13:46;9.30;79.70
63219;DHT22;49320;52.512;13.448;2023-11-19T03:16:13;8.90;74.20
63219;DHT22;49320;52.512;13.448;2023-11-19T03:18:40;8.90;74.10
63219;DHT22;49320;52.512;13.448;2023-11-19T03:21:07;9.00;73.80
63219;DHT22;49320;52.512;13.448;2023-11-19T03:23:35;8.90;73.70
63219;DHT22;49320;52.512;13.448;2023-11-19T03:26:04;8.90;74.60
63219;DHT22;49320;52.512;13.448;2023-11-19T03:28:32;9.00;74.30
63219;DHT22;49320;52.512;13.448;2023-11-19T03:33:27;9.00;73.70
63219;DHT22;49320;52.512;13.448;2023-11-19T03:35:56;8.90;79.00
63219;DHT22;49320;52.512;13.448;2023-11-19T03:38:24;9.00;74.30
63219;DHT22;49320;52.512;13.448;2023-11-19T03:40:51;9.20;78.80
63219;DHT22;49320;52.512;13.448;2023-11-19T03:43:18;9.10;74.00
63219;DHT22;49320;52.512;13.448;2023-11-19T03:45:48;9.10;74.50
63219;DHT22;49320;52.512;13.448;2023-11-19T03:48:15;9.10;74.60
63219;DHT22;49320;52.512;13.448;2023-11-19T03:50:43;8.90;80.40
63219;DHT22;49320;52.512;13.448;2023-11-19T03:53:11;9.00;74.80
63219;DHT22;49320;52.512;13.448;2023-11-19T03:55:40;9.00;75.20
63219;DHT22;49320;52.512;13.448;2023-11-19T03:58:06;9.00;75.30
63219;DHT22;49320;52.512;13.448;2023-11-19T04:03:01;8.90;83.00
63219;DHT22;49320;52.512;13.448;2023-11-19T04:05:28;9.00;82.20
63219;DHT22;49320;52.512;13.448;2023-11-19T04:07:54;8.90;76.00
63219;DHT22;49320;52.512;13.448;2023-11-19T04:10:21;8.90;76.40
63219;DHT22;49320;52.512;13.448;2023-11-19T04:12:49;8.90;76.30
63219;DHT22;49320;52.512;13.448;2023-11-19T04:15:16;8.80;76.90
63219;DHT22;49320;52.512;13.448;2023-11-19T04:17:43;8.80;76.90
63219;DHT22;49320;52.512;13.448;2023-11-19T04:20:11;8.80;82.40
63219;DHT22;49320;52.512;13.448;2023-11-19T04:22:40;8.70;77.60
63219;DHT22;49320;52.512;13.448;2023-11-19T04:25:07;8.70;77.70
63219;DHT22;49320;52.512;13.448;2023-11-19T04:27:35;8.70;78.00
63219;DHT22;49320;52.512;13.448;2023-11-19T04:30:02;8.60;78.20
63219;DHT22;49320;52.512;13.448;2023-11-19T04:32:30;8.60;78.90
63219;DHT22;49320;52.512;13.448;2023-11-19T04:34:57;8.70;78.80
63219;DHT22;49320;52.512;13.448;2023-11-19T04:37:24;8.60;78.90
63219;DHT22;49320;52.512;13.448;2023-11-19T04:39:51;8.60;79.70
63219;DHT22;49320;52.512;13.448;2023-11-19T04:42:18;8.50;79.10
63219;DHT22;49320;52.512;13.448;2023-11-19T04:44:45;8.60;79.70
63219;DHT22;49320;52.512;13.448;2023-11-19T04:47:12;8.60;79.70
63219;DHT22;49320;52.512;13.448;2023-11-19T04:49:42;8.50;79.60
63219;DHT22;49320;52.512;13.448;2023-11-19T04:52:12;8.60;81.30
63219;DHT22;49320;52.512;13.448;2023-11-19T04:54:43;8.60;80.30
63219;DHT22;49320;52.512;13.448;2023-11-19T04:57:10;8.60;81.20
63219;DHT22;49320;52.512;13.448;2023-11-19T04:59:37;8.60;80.30
63219;DHT22;49320;52.512;13.448;2023-11-19T05:02:05;8.60;80.50
63219;DHT22;49320;52.512;13.448;2023-11-19T05:04:32;8.60;80.90
63219;DHT22;49320;52.512;13.448;2023-11-19T05:06:59;8.60;81.50
63219;DHT22;49320;52.512;13.448;2023-11-19T05:09:26;8.60;80.90
63219;DHT22;49320;52.512;13.448;2023-11-19T05:11:53;8.60;82.70
63219;DHT22;49320;52.512;13.448;2023-11-19T05:14:20;8.60;81.40
63219;DHT22;49320;52.512;13.448;2023-11-19T05:16:48;8.50;81.60
63219;DHT22;49320;52.512;13.448;2023-11-19T05:19:15;8.50;81.80
63219;DHT22;49320;52.512;13.448;2023-11-19T05:21:42;8.50;81.90
63219;DHT22;49320;52.512;13.448;2023-11-19T05:24:10;8.50;82.40
63219;DHT22;49320;52.512;13.448;2023-11-19T05:26:38;8.50;82.50
63219;DHT22;49320;52.512;13.448;2023-11-19T05:29:05;8.40;83.60
63219;DHT22;49320;52.512;13.448;2023-11-19T05:31:32;8.40;82.50
63219;DHT22;49320;52.512;13.448;2023-11-19T05:34:03;8.40;83.20
63219;DHT22;49320;52.512;13.448;2023-11-19T05:36:31;8.30;85.30
63219;DHT22;49320;52.512;13.448;2023-11-19T05:38:58;8.40;83.40
63219;DHT22;49320;52.512;13.448;2023-11-19T05:41:24;8.40;85.30
63219;DHT22;49320;52.512;13.448;2023-11-19T05:46:19;8.20;90.60
63219;DHT22;49320;52.512;13.448;2023-11-19T05:48:47;8.50;90.80
63219;DHT22;49320;52.512;13.448;2023-11-19T05:51:15;8.40;90.00
63219;DHT22;49320;52.512;13.448;2023-11-19T05:53:42;8.40;84.50
63219;DHT22;49320;52.512;13.448;2023-11-19T05:56:09;8.40;84.50
63219;DHT22;49320;52.512;13.448;2023-11-19T05:58:36;8.40;84.70
63219;DHT22;49320;52.512;13.448;2023-11-19T06:01:04;8.40;84.80
63219;DHT22;49320;52.512;13.448;2023-11-19T06:03:34;8.40;85.00
63219;DHT22;49320;52.512;13.448;2023-11-19T06:06:01;8.40;85.10
63219;DHT22;49320;52.512;13.448;2023-11-19T06:08:28;8.40;85.20
63219;DHT22;49320;52.512;13.448;2023-11-19T06:10:57;8.50;87.30
63219;DHT22;49320;52.512;13.448;2023-11-19T06:13:24;8.40;86.60
63219;DHT22;49320;52.512;13.448;2023-11-19T06:15:52;8.40;85.50
63219;DHT22;49320;52.512;13.448;2023-11-19T06:18:19;8.50;85.50
63219;DHT22;49320;52.512;13.448;2023-11-19T06:20:47;8.50;85.60
63219;DHT22;49320;52.512;13.448;2023-11-19T06:23:14;8.30;86.80
63219;DHT22;49320;52.512;13.448;2023-11-19T06:25:41;8.50;87.00
63219;DHT22;49320;52.512;13.448;2023-11-19T06:28:08;8.50;85.70
63219;DHT22;49320;52.512;13.448;2023-11-19T06:30:35;8.50;85.60
63219;DHT22;49320;52.512;13.448;2023-11-19T06:33:02;8.50;86.70
63219;DHT22;49320;52.512;13.448;2023-11-19T06:35:30;8.50;85.70
63219;DHT22;49320;52.512;13.448;2023-11-19T06:38:03;8.50;86.90
63219;DHT22;49320;52.512;13.448;2023-11-19T06:40:34;8.50;86.00
63219;DHT22;49320;52.512;13.448;2023-11-19T06:43:04;8.50;86.40
63219;DHT22;49320;52.512;13.448;2023-11-19T06:45:32;8.50;86.10
63219;DHT22;49320;52.512;13.448;2023-11-19T06:48:01;11.00;87.70
63219;DHT22;49320;52.512;13.448;2023-11-19T06:50:30;8.60;86.70
63219;DHT22;49320;52.512;13.448;2023-11-19T06:52:58;8.60;86.90
63219;DHT22;49320;52.512;13.448;2023-11-19T06:55:25;8.60;86.50
63219;DHT22;49320;52.512;13.448;2023-11-19T06:57:53;8.60;86.50
63219;DHT22;49320;52.512;13.448;2023-11-19T07:00:20;8.60;87.60
63219;DHT22;49320;52.512;13.448;2023-11-19T07:02:46;8.70;87.50
63219;DHT22;49320;52.512;13.448;2023-11-19T07:05:14;8.70;86.70
63219;DHT22;49320;52.512;13.448;2023-11-19T07:07:40;8.70;88.00
63219;DHT22;49320;52.512;13.448;2023-11-19T07:10:07;8.70;87.20
63219;DHT22;49320;52.512;13.448;2023-11-19T07:12:36;8.80;87.10
63219;DHT22;49320;52.512;13.448;2023-11-19T07:15:04;8.70;87.30
63219;DHT22;49320;52.512;13.448;2023-11-19T07:17:32;8.80;87.90
63219;DHT22;49320;52.512;13.448;2023-11-19T07:19:59;8.80;87.60
63219;DHT22;49320;52.512;13.448;2023-11-19T07:22:26;8.80;87.40
63219;DHT22;49320;52.512;13.448;2023-11-19T07:24:56;8.90;87.10
63219;DHT22;49320;52.512;13.448;2023-11-19T07:27:23;8.80;87.40
63219;DHT22;49320;52.512;13.448;2023-11-19T07:29:51;8.90;87.60
63219;DHT22;49320;52.512;13.448;2023-11-19T07:32:18;8.90;87.90
63219;DHT22;49320;52.512;13.448;2023-11-19T07:34:45;8.90;87.70
63219;DHT22;49320;52.512;13.448;2023-11-19T07:37:12;8.90;87.50
63219;DHT22;49320;52.512;13.448;2023-11-19T07:39:39;8.90;87.40
63219;DHT22;49320;52.512;13.448;2023-11-19T07:42:08;9.00;87.70
63219;DHT22;49320;52.512;13.448;2023-11-19T07:44:36;9.00;87.70
63219;DHT22;49320;52.512;13.448;2023-11-19T07:47:04;9.00;87.80
63219;DHT22;49320;52.512;13.448;2023-11-19T07:49:31;9.00;88.00
63219;DHT22;49320;52.512;13.448;2023-11-19T07:51:58;9.00;88.00
63219;DHT22;49320;52.512;13.448;2023-11-19T07:54:25;9.00;88.00
63219;DHT22;49320;52.512;13.448;2023-11-19T07:56:52;9.00;88.10
63219;DHT22;49320;52.512;13.448;2023-11-19T07:59:19;9.10;88.00
63219;DHT22;49320;52.512;13.448;2023-11-19T08:01:46;9.10;88.20
63219;DHT22;49320;52.512;13.448;2023-11-19T08:04:12;9.10;88.20
63219;DHT22;49320;52.512;13.448;2023-11-19T08:06:40;9.10;88.20
63219;DHT22;49320;52.512;13.448;2023-11-19T08:09:07;9.20;88.20
63219;DHT22;49320;52.512;13.448;2023-11-19T08:11:41;9.20;88.50
63219;DHT22;49320;52.512;13.448;2023-11-19T08:14:08;9.20;88.60
63219;DHT22;49320;52.512;13.448;2023-11-19T08:16:35;9.20;88.30
63219;DHT22;49320;52.512;13.448;2023-11-19T08:19:04;9.20;88.60
63219;DHT22;49320;52.512;13.448;2023-11-19T08:21:31;9.30;88.70
63219;DHT22;49320;52.512;13.448;2023-11-19T08:23:58;9.30;88.50
63219;DHT22;49320;52.512;13.448;2023-11-19T08:26:24;8.60;88.50
63219;DHT22;49320;52.512;13.448;2023-11-19T08:28:51;9.40;89.10
63219;DHT22;49320;52.512;13.448;2023-11-19T08:31:18;9.50;89.30
63219;DHT22;49320;52.512;13.448;2023-11-19T08:33:45;9.50;89.20
63219;DHT22;49320;52.512;13.448;2023-11-19T08:36:16;9.50;89.00
63219;DHT22;49320;52.512;13.448;2023-11-19T08:38:43;9.40;89.60
63219;DHT22;49320;52.512;13.448;2023-11-19T08:41:10;9.60;89.40
63219;DHT22;49320;52.512;13.448;2023-11-19T08:43:37;9.60;89.50
63219;DHT22;49320;52.512;13.448;2023-11-19T08:46:09;9.70;90.00
63219;DHT22;49320;52.512;13.448;2023-11-19T08:48:38;9.70;90.00
63219;DHT22;49320;52.512;13.448;2023-11-19T08:51:05;9.60;89.20
63219;DHT22;49320;52.512;13.448;2023-11-19T08:53:32;9.70;89.60
63219;DHT22;49320;52.512;13.448;2023-11-19T08:55:59;9.80;89.70
63219;DHT22;49320;52.512;13.448;2023-11-19T08:58:27;9.80;90.00
63219;DHT22;49320;52.512;13.448;2023-11-19T09:00:54;9.90;90.10
63219;DHT22;49320;52.512;13.448;2023-11-19T09:03:20;9.90;90.10
63219;DHT22;49320;52.512;13.448;2023-11-19T09:05:48;10.10;90.60
63219;DHT22;49320;52.512;13.448;2023-11-19T09:08:15;10.10;90.20
63219;DHT22;49320;52.512;13.448;2023-11-19T09:10:42;9.30;90.00
63219;DHT22;49320;52.512;13.448;2023-11-19T09:13:08;10.20;91.40
63219;DHT22;49320;52.512;13.448;2023-11-19T09:15:35;9.50;90.00
63219;DHT22;49320;52.512;13.448;2023-11-19T09:18:02;10.40;91.30
63219;DHT22;49320;52.512;13.448;2023-11-19T09:20:29;10.40;90.50
63219;DHT22;49320;52.512;13.448;2023-11-19T09:23:07;10.50;90.50
63219;DHT22;49320;52.512;13.448;2023-11-19T09:25:36;10.50;90.40
63219;DHT22;49320;52.512;13.448;2023-11-19T09:28:05;10.60;90.20
63219;DHT22;49320;52.512;13.448;2023-11-19T09:30:32;10.60;90.10
63219;DHT22;49320;52.512;13.448;2023-11-19T09:33:00;10.70;89.70
63219;DHT22;49320;52.512;13.448;2023-11-19T09:35:27;10.80;90.20
63219;DHT22;49320;52.512;13.448;2023-11-19T09:37:54;10.80;90.20
63219;DHT22;49320;52.512;13.448;2023-11-19T09:40:21;12.70;90.90
63219;DHT22;49320;52.512;13.448;2023-11-19T09:42:48;10.90;90.50
63219;DHT22;49320;52.512;13.448;2023-11-19T09:45:16;11.00;90.60
63219;DHT22;49320;52.512;13.448;2023-11-19T09:47:46;11.10;90.70
63219;DHT22;49320;52.512;13.448;2023-11-19T09:50:17;10.40;90.50
63219;DHT22;49320;52.512;13.448;2023-11-19T09:52:47;11.40;90.90
63219;DHT22;49320;52.512;13.448;2023-11-19T09:55:14;11.40;90.60
63219;DHT22;49320;52.512;13.448;2023-11-19T09:57:41;11.50;90.60
63219;DHT22;49320;52.512;13.448;2023-11-19T10:00:11;11.60;90.70
63219;DHT22;49320;52.512;13.448;2023-11-19T10:02:43;11.70;90.70
63219;DHT22;49320;52.512;13.448;2023-11-19T10:05:14;11.80;90.80
63219;DHT22;49320;52.512;13.448;2023-11-19T10:07:42;11.90;90.80
63219;DHT22;49320;52.512;13.448;2023-11-19T10:10:12;12.30;91.40
63219;DHT22;49320;52.512;13.448;2023-11-19T10:12:47;12.20;90.80
63219;DHT22;49320;52.512;13.448;2023-11-19T10:15:21;12.20;90.80
63219;DHT22;49320;52.512;13.448;2023-11-19T10:17:56;12.30;90.60
63219;DHT22;49320;52.512;13.448;2023-11-19T10:20:24;12.40;90.70
63219;DHT22;49320;52.512;13.448;2023-11-19T10:22:55;12.50;90.40
63219;DHT22;49320;52.512;13.448;2023-11-19T10:25:26;12.50;90.60
63219;DHT22;49320;52.512;13.448;2023-11-19T10:27:56;12.60;90.50
63219;DHT22;49320;52.512;13.448;2023-11-19T10:30:25;12.60;90.70
63219;DHT22;49320;52.512;13.448;2023-11-19T10:33:06;12.60;90.50
63219;DHT22;49320;52.512;13.448;2023-11-19T10:35:51;12.70;90.80
63219;DHT22;49320;52.512;13.448;2023-11-19T10:38:28;12.80;90.90
63219;DHT22;49320;52.512;13.448;2023-11-19T10:40:57;12.80;90.50
63219;DHT22;49320;52.512;13.448;2023-11-19T10:43:24;12.90;90.50
63219;DHT22;49320;52.512;13.448;2023-11-19T10:45:51;12.90;90.50
63219;DHT22;49320;52.512;13.448;2023-11-19T10:48:18;13.00;90.60
63219;DHT22;49320;52.512;13.448;2023-11-19T10:50:50;13.20;90.60
63219;DHT22;49320;52.512;13.448;2023-11-19T10:53:23;13.10;91.00
63219;DHT22;49320;52.512;13.448;2023-11-19T10:55:55;13.30;91.00
63219;DHT22;49320;52.512;13.448;2023-11-19T10:58:28;13.40;91.00
63219;DHT22;49320;52.512;13.448;2023-11-19T11:00:57;13.50;91.00
63219;DHT22;49320;52.512;13.448;2023-11-19T11:03:40;13.60;90.80
63219;DHT22;49320;52.512;13.448;2023-11-19T11:06:08;13.70;90.90
63219;DHT22;49320;52.512;13.448;2023-11-19T11:08:37;13.10;90.40
63219;DHT22;49320;52.512;13.448;2023-11-19T11:11:06;13.90;90.50
63219;DHT22;49320;52.512;13.448;2023-11-19T11:13:34;13.90;90.50
63219;DHT22;49320;52.512;13.448;2023-11-19T11:16:04;14.00;90.30
63219;DHT22;49320;52.512;13.448;2023-11-19T11:18:34;14.00;90.00
63219;DHT22;49320;52.512;13.448;2023-11-19T11:21:11;14.10;90.10
63219;DHT22;49320;52.512;13.448;2023-11-19T11:23:56;14.10;90.10
63219;DHT22;49320;52.512;13.448;2023-11-19T11:26:57;14.10;89.70
63219;DHT22;49320;52.512;13.448;2023-11-19T11:29:53;14.20;90.10
63219;DHT22;49320;52.512;13.448;2023-11-19T11:32:43;14.20;89.90
63219;DHT22;49320;52.512;13.448;2023-11-19T11:38:21;14.30;89.70
63219;DHT22;49320;52.512;13.448;2023-11-19T11:41:28;14.30;89.40
63219;DHT22;49320;52.512;13.448;2023-11-19T11:43:57;14.30;89.70
63219;DHT22;49320;52.512;13.448;2023-11-19T11:49:04;14.30;89.60
63219;DHT22;49320;52.512;13.448;2023-11-19T11:54:11;14.40;89.70
63219;DHT22;49320;52.512;13.448;2023-11-19T11:57:01;14.50;89.70
63219;DHT22;49320;52.512;13.448;2023-11-19T12:02:11;14.70;89.60
63219;DHT22;49320;52.512;13.448;2023-11-19T12:04:40;14.80;89.40
63219;DHT22;49320;52.512;13.448;2023-11-19T12:07:19;14.80;89.10
63219;DHT22;49320;52.512;13.448;2023-11-19T12:10:05;14.90;89.10
63219;DHT22;49320;52.512;13.448;2023-11-19T12:12:34;14.90;88.90
63219;DHT22;49320;52.512;13.448;2023-11-19T12:15:08;15.00;87.80
63219;DHT22;49320;52.512;13.448;2023-11-19T12:20:12;15.10;88.20
63219;DHT22;49320;52.512;13.448;2023-11-19T12:22:40;15.10;87.90
63219;DHT22;49320;52.512;13.448;2023-11-19T12:25:10;15.20;87.80
63219;DHT22;49320;52.512;13.448;2023-11-19T12:27:43;15.20;87.70
63219;DHT22;49320;52.512;13.448;2023-11-19T12:30:12;15.30;87.60
63219;DHT22;49320;52.512;13.448;2023-11-19T12:32:43;15.30;87.50
63219;DHT22;49320;52.512;13.448;2023-11-19T12:35:12;15.30;87.20
63219;DHT22;49320;52.512;13.448;2023-11-19T12:37:43;15.30;87.20
63219;DHT22;49320;52.512;13.448;2023-11-19T12:40:20;15.30;87.10
63219;DHT22;49320;52.512;13.448;2023-11-19T12:42:49;15.40;86.90
63219;DHT22;49320;52.512;13.448;2023-11-19T12:45:17;15.40;86.80
63219;DHT22;49320;52.512;13.448;2023-11-19T12:47:46;15.40;86.80
63219;DHT22;49320;52.512;13.448;2023-11-19T12:50:17;16.60;87.40
63219;DHT22;49320;52.512;13.448;2023-11-19T12:52:58;15.40;85.70
63219;DHT22;49320;52.512;13.448;2023-11-19T12:55:29;15.40;86.10
63219;DHT22;49320;52.512;13.448;2023-11-19T12:57:57;15.40;86.00
63219;DHT22;49320;52.512;13.448;2023-11-19T13:00:26;15.50;86.10
63219;DHT22;49320;52.512;13.448;2023-11-19T13:02:55;15.80;86.50
63219;DHT22;49320;52.512;13.448;2023-11-19T13:05:31;15.30;86.20
63219;DHT22;49320;52.512;13.448;2023-11-19T13:08:00;16.50;86.20
63219;DHT22;49320;52.512;13.448;2023-11-19T13:10:28;15.40;85.60
63219;DHT22;49320;52.512;13.448;2023-11-19T13:15:29;15.30;84.80
63219;DHT22;49320;52.512;13.448;2023-11-19T13:17:56;15.30;84.80
63219;DHT22;49320;52.512;13.448;2023-11-19T13:20:22;15.20;84.90
63219;DHT22;49320;52.512;13.448;2023-11-19T13:23:02;15.10;85.60
63219;DHT22;49320;52.512;13.448;2023-11-19T13:25:31;15.10;83.50
63219;DHT22;49320;52.512;13.448;2023-11-19T13:28:01;15.10;84.90
63219;DHT22;49320;52.512;13.448;2023-11-19T13:30:28;15.10;85.00
63219;DHT22;49320;52.512;13.448;2023-11-19T13:35:27;14.90;84.60
63219;DHT22;49320;52.512;13.448;2023-11-19T13:37:54;15.00;83.90
63219;DHT22;49320;52.512;13.448;2023-11-19T13:40:21;15.00;85.00
63219;DHT22;49320;52.512;13.448;2023-11-19T13:42:50;14.90;85.00
63219;DHT22;49320;52.512;13.448;2023-11-19T13:45:17;14.60;84.70
63219;DHT22;49320;52.512;13.448;2023-11-19T13:47:45;14.90;85.20
63219;DHT22;49320;52.512;13.448;2023-11-19T13:50:15;15.20;86.20
63219;DHT22;49320;52.512;13.448;2023-11-19T13:52:44;14.90;84.50
63219;DHT22;49320;52.512;13.448;2023-11-19T13:55:13;14.90;85.50
63219;DHT22;49320;52.512;13.448;2023-11-19T13:57:41;15.00;84.40
63219;DHT22;49320;52.512;13.448;2023-11-19T14:00:10;15.00;85.40
63219;DHT22;49320;52.512;13.448;2023-11-19T14:02:43;15.00;85.40
63219;DHT22;49320;52.512;13.448;2023-11-19T14:05:10;15.40;85.60
63219;DHT22;49320;52.512;13.448;2023-11-19T14:07:41;15.00;85.30
63219;DHT22;49320;52.512;13.448;2023-11-19T14:10:09;15.20;86.30
63219;DHT22;49320;52.512;13.448;2023-11-19T14:12:37;15.10;85.30
63219;DHT22;49320;52.512;13.448;2023-11-19T14:15:09;15.10;86.00
63219;DHT22;49320;52.512;13.448;2023-11-19T14:17:36;15.10;85.10
63219;DHT22;49320;52.512;13.448;2023-11-19T14:20:03;14.90;84.50
63219;DHT22;49320;52.512;13.448;2023-11-19T14:22:40;15.10;85.90
63219;DHT22;49320;52.512;13.448;2023-11-19T14:25:08;15.20;85.10
63219;DHT22;49320;52.512;13.448;2023-11-19T14:27:40;15.20;85.10
63219;DHT22;49320;52.512;13.448;2023-11-19T14:30:10;15.20;85.00
63219;DHT22;49320;52.512;13.448;2023-11-19T14:32:41;15.30;84.90
63219;DHT22;49320;52.512;13.448;2023-11-19T14:35:10;15.10;85.30
63219;DHT22;49320;52.512;13.448;2023-11-19T14:37:37;15.30;84.00
63219;DHT22;49320;52.512;13.448;2023-11-19T14:40:05;15.20;84.80
63219;DHT22;49320;52.512;13.448;2023-11-19T14:42:35;15.30;84.80
63219;DHT22;49320;52.512;13.448;2023-11-19T14:45:02;15.30;84.80
63219;DHT22;49320;52.512;13.448;2023-11-19T14:49:57;15.20;83.90
63219;DHT22;49320;52.512;13.448;2023-11-19T14:52:24;15.20;83.40
63219;DHT22;49320;52.512;13.448;2023-11-19T14:54:50;15.20;84.30
63219;DHT22;49320;52.512;13.448;2023-11-19T14:57:20;15.20;84.10
63219;DHT22;49320;52.512;13.448;2023-11-19T14:59:47;15.20;83.90
63219;DHT22;49320;52.512;13.448;2023-11-19T15:02:14;15.20;83.90
63219;DHT22;49320;52.512;13.448;2023-11-19T15:04:41;15.20;82.80
63219;DHT22;49320;52.512;13.448;2023-11-19T15:07:11;15.10;82.90
63219;DHT22;49320;52.512;13.448;2023-11-19T15:09:38;15.00;83.60
63219;DHT22;49320;52.512;13.448;2023-11-19T15:12:06;15.20;83.60
63219;DHT22;49320;52.512;13.448;2023-11-19T15:14:33;15.10;83.40
63219;DHT22;49320;52.512;13.448;2023-11-19T15:17:00;14.00;82.80
63219;DHT22;49320;52.512;13.448;2023-11-19T15:19:27;15.10;82.40
63219;DHT22;49320;52.512;13.448;2023-11-19T15:21:54;15.10;83.40
63219;DHT22;49320;52.512;13.448;2023-11-19T15:24:21;15.10;83.50
63219;DHT22;49320;52.512;13.448;2023-11-19T15:26:48;15.10;83.40
63219;DHT22;49320;52.512;13.448;2023-11-19T15:29:15;15.10;83.40
63219;DHT22;49320;52.512;13.448;2023-11-19T15:31:42;15.10;83.50
63219;DHT22;49320;52.512;13.448;2023-11-19T15:34:09;15.10;83.60
63219;DHT22;49320;52.512;13.448;2023-11-19T15:36:36;15.10;82.50
63219;DHT22;49320;52.512;13.448;2023-11-19T15:39:03;15.10;83.40
63219;DHT22;49320;52.512;13.448;2023-11-19T15:41:31;15.00;83.20
63219;DHT22;49320;52.512;13.448;2023-11-19T15:48:52;15.00;83.00
63219;DHT22;49320;52.512;13.448;2023-11-19T15:51:19;15.10;82.80
63219;DHT22;49320;52.512;13.448;2023-11-19T15:53:46;15.10;83.70
63219;DHT22;49320;52.512;13.448;2023-11-19T15:56:13;15.00;83.60
63219;DHT22;49320;52.512;13.448;2023-11-19T15:58:40;15.00;83.70
63219;DHT22;49320;52.512;13.448;2023-11-19T16:01:07;15.00;83.80
63219;DHT22;49320;52.512;13.448;2023-11-19T16:03:37;15.00;83.90
63219;DHT22;49320;52.512;13.448;2023-11-19T16:06:07;14.80;83.70
63219;DHT22;49320;52.512;13.448;2023-11-19T16:08:37;15.00;84.00